KFTK/FTK METAR and TAF weather

Enter ICAO airport designator
Station Type Date Time Source
KFTK METAR 2021/09/24 04:56 UTC NOAA

KFTK 240456Z AUTO 00000KT 10SM CLR 09/09 A3005 RMK AO2 SLP178 T00890087 401960086


Station Type Date Time Source
KFTK Decoded METAR 2021/09/24 04:56 UTC NOAA

Fort Knox, KY, United States (KFTK) 37-54N 085-58W 230M
Sep 24, 2021 - 12:56 AM EDT / 2021.09.24 0456 UTC
Wind: Calm:0
Visibility: 10 mile(s):0
Sky conditions: clear
Temperature: 48.0 F (8.9 C)
Dew Point: 47.7 F (8.7 C)
Relative Humidity: 98%
Pressure (altimeter): 30.05 in. Hg (1017 hPa)
ob: KFTK 240456Z AUTO 00000KT 10SM CLR 09/09 A3005 RMK AO2 SLP178 T00890087 401960086
cycle: 5

Station Type Date Time Source
KFTK TAF 2021/09/23 19:12 UTC NOAA

TAF TAF KFTK 231901Z 2319/2501 27012KT 9999 FEW040 QNH3000INS
BECMG 2323/2324 VRB06KT 9999 FEW040 QNH3003INS TX21/2419Z TN08/2411Z LAST NO
AMDS AFT 2403 NEXT 2411

Example: see airport list